createdAt,value
2023-03-04T00:00:07.880Z,0.60
2023-03-04T00:02:37.990Z,0.70
2023-03-04T00:05:06.854Z,0.70
2023-03-04T00:07:34.716Z,0.80
2023-03-04T00:10:02.635Z,0.80
2023-03-04T00:12:31.970Z,0.80
2023-03-04T00:14:59.869Z,0.80
2023-03-04T00:17:29.979Z,0.80
2023-03-04T00:19:57.913Z,0.70
2023-03-04T00:22:25.891Z,0.70
2023-03-04T00:24:53.752Z,0.70
2023-03-04T00:27:21.613Z,0.60
2023-03-04T00:29:50.878Z,0.50
2023-03-04T00:32:19.252Z,0.50
2023-03-04T00:34:47.166Z,0.50
2023-03-04T00:37:15.284Z,0.50
2023-03-04T00:39:43.145Z,0.50
2023-03-04T00:42:10.989Z,0.50
2023-03-04T00:44:39.976Z,0.40
2023-03-04T00:47:09.258Z,0.30
2023-03-04T00:49:37.908Z,0.30
2023-03-04T00:52:05.812Z,0.30
2023-03-04T00:54:33.750Z,0.30
2023-03-04T00:57:01.634Z,0.20
2023-03-04T00:59:29.535Z,0.20
2023-03-04T01:01:57.430Z,0.20
2023-03-04T01:04:26.765Z,0.20
2023-03-04T01:06:54.997Z,0.20
2023-03-04T01:09:23.006Z,0.20
2023-03-04T01:11:50.913Z,0.20
2023-03-04T01:14:18.792Z,0.20
2023-03-04T01:16:46.922Z,0.10
2023-03-04T01:19:14.858Z,0.20
2023-03-04T01:21:44.093Z,0.20
2023-03-04T01:24:11.981Z,0.10
2023-03-04T01:26:41.809Z,0.10
2023-03-04T01:29:09.815Z,0.10
2023-03-04T01:31:37.817Z,0.10
2023-03-04T01:34:05.697Z,0.10
2023-03-04T01:36:33.607Z,0.10
2023-03-04T01:39:02.837Z,0.10
2023-03-04T01:41:30.731Z,0.10
2023-03-04T01:44:02.256Z,0.10
2023-03-04T01:46:31.354Z,0.10
2023-03-04T01:49:00.069Z,0.20
2023-03-04T01:51:28.097Z,0.20
2023-03-04T01:53:56.695Z,0.20
2023-03-04T01:56:30.628Z,0.20
2023-03-04T01:59:10.081Z,0.20
2023-03-04T02:01:39.034Z,0.20
2023-03-04T02:04:08.689Z,0.20
2023-03-04T02:06:37.158Z,0.20
2023-03-04T02:09:05.524Z,0.20
2023-03-04T02:11:36.561Z,0.20
2023-03-04T02:14:04.778Z,0.10
2023-03-04T02:16:33.571Z,0.10
2023-03-04T02:19:01.902Z,0.00
2023-03-04T02:21:31.647Z,0.00
2023-03-04T02:24:09.152Z,0.00
2023-03-04T02:26:41.266Z,0.00
2023-03-04T02:29:11.448Z,-0.10
2023-03-04T02:31:41.620Z,0.00
2023-03-04T02:34:14.417Z,-0.10
2023-03-04T02:36:43.280Z,-0.10
2023-03-04T02:39:14.699Z,0.00
2023-03-04T02:41:44.659Z,0.00
2023-03-04T02:44:18.970Z,-0.10
2023-03-04T02:46:48.228Z,-0.10
2023-03-04T02:49:16.513Z,-0.20
2023-03-04T02:51:44.814Z,-0.20
2023-03-04T02:54:16.944Z,-0.20
2023-03-04T02:56:50.881Z,-0.20
2023-03-04T02:59:20.136Z,-0.30
2023-03-04T03:01:48.157Z,-0.30
2023-03-04T03:04:16.269Z,-0.30
2023-03-04T03:06:45.699Z,-0.30
2023-03-04T03:09:13.972Z,-0.40
2023-03-04T03:11:42.023Z,-0.40
2023-03-04T03:14:11.886Z,-0.40
2023-03-04T03:16:40.023Z,-0.40
2023-03-04T03:19:08.019Z,-0.40
2023-03-04T03:21:37.792Z,-0.50
2023-03-04T03:24:05.766Z,-0.50
2023-03-04T03:26:33.731Z,-0.50
2023-03-04T03:29:01.616Z,-0.50
2023-03-04T03:31:31.406Z,-0.40
2023-03-04T03:33:59.388Z,-0.50
2023-03-04T03:36:29.024Z,-0.40
2023-03-04T03:38:56.942Z,-0.50
2023-03-04T03:41:24.854Z,-0.40
2023-03-04T03:43:52.679Z,-0.40
2023-03-04T03:46:20.537Z,-0.40
2023-03-04T03:48:49.771Z,-0.40
2023-03-04T03:51:17.650Z,-0.30
2023-03-04T03:53:45.644Z,-0.30
2023-03-04T03:56:13.516Z,-0.40
2023-03-04T03:58:41.351Z,-0.50
2023-03-04T04:01:09.344Z,-0.60
2023-03-04T04:03:37.345Z,-0.60
2023-03-04T04:06:07.202Z,-0.60
2023-03-04T04:08:35.276Z,-0.50
2023-03-04T04:11:03.282Z,-0.60
2023-03-04T04:13:31.166Z,-0.50
2023-03-04T04:15:59.506Z,-0.60
2023-03-04T04:18:27.812Z,-0.60
2023-03-04T04:20:56.053Z,-0.60
2023-03-04T04:23:25.480Z,-0.50
2023-03-04T04:25:55.871Z,-0.60
2023-03-04T04:28:23.746Z,-0.50
2023-03-04T04:30:51.862Z,-0.50
2023-03-04T04:33:19.858Z,-0.40
2023-03-04T04:35:47.890Z,-0.40
2023-03-04T04:38:16.786Z,-0.30
2023-03-04T04:40:46.002Z,-0.30
2023-03-04T04:43:13.966Z,-0.30
2023-03-04T04:45:42.320Z,-0.30
2023-03-04T04:48:10.278Z,-0.30
2023-03-04T04:50:38.143Z,-0.40
2023-03-04T04:53:06.052Z,-0.40
2023-03-04T04:55:35.284Z,-0.30
2023-03-04T04:58:06.947Z,-0.30
2023-03-04T05:00:34.874Z,-0.40
2023-03-04T05:03:02.754Z,-0.40
2023-03-04T05:05:30.637Z,-0.30
2023-03-04T05:07:58.701Z,-0.40
2023-03-04T05:10:26.631Z,-0.50
2023-03-04T05:12:54.519Z,-0.50
2023-03-04T05:15:23.764Z,-0.50
2023-03-04T05:17:51.705Z,-0.50
2023-03-04T05:20:19.728Z,-0.40
2023-03-04T05:22:47.591Z,-0.50
2023-03-04T05:25:15.570Z,-0.50
2023-03-04T05:27:43.417Z,-0.40
2023-03-04T05:30:12.594Z,-0.40
2023-03-04T05:32:41.851Z,-0.60
2023-03-04T05:35:10.589Z,-0.60
2023-03-04T05:37:38.552Z,-0.60
2023-03-04T05:40:07.573Z,-0.70
2023-03-04T05:42:35.452Z,-0.70
2023-03-04T05:45:03.345Z,-0.70
2023-03-04T05:47:31.265Z,-0.70
2023-03-04T05:50:00.462Z,-0.60
2023-03-04T05:52:28.347Z,-0.70
2023-03-04T05:54:56.238Z,-0.70
2023-03-04T05:57:24.100Z,-0.70
2023-03-04T05:59:52.050Z,-0.70
2023-03-04T06:02:19.959Z,-0.70
2023-03-04T06:04:47.869Z,-0.70
2023-03-04T06:07:17.190Z,-0.70
2023-03-04T06:09:45.183Z,-0.60
2023-03-04T06:12:13.190Z,-0.60
2023-03-04T06:14:41.049Z,-0.60
2023-03-04T06:17:09.043Z,-0.50
2023-03-04T06:19:37.946Z,-0.50
2023-03-04T06:22:06.265Z,-0.40
2023-03-04T06:24:35.694Z,-0.30
2023-03-04T06:27:03.548Z,-0.20
2023-03-04T06:29:31.404Z,0.00
2023-03-04T06:31:59.424Z,0.10
2023-03-04T06:34:28.199Z,0.20
2023-03-04T06:36:56.061Z,0.30
2023-03-04T06:39:23.937Z,0.40
2023-03-04T06:41:53.174Z,0.40
2023-03-04T06:44:21.140Z,0.70
2023-03-04T06:46:49.120Z,0.70
2023-03-04T06:49:17.306Z,0.90
2023-03-04T06:51:45.149Z,1.00
2023-03-04T06:54:13.034Z,1.10
2023-03-04T06:56:40.895Z,1.10
2023-03-04T06:59:10.148Z,1.10
2023-03-04T07:01:38.456Z,1.20
2023-03-04T07:04:06.542Z,1.20
2023-03-04T07:06:34.419Z,1.50
2023-03-04T07:09:02.432Z,1.60
2023-03-04T07:11:30.371Z,1.90
2023-03-04T07:13:58.285Z,2.00
2023-03-04T07:16:27.634Z,2.20
2023-03-04T07:18:55.536Z,2.30
2023-03-04T07:21:23.443Z,2.40
2023-03-04T07:23:51.460Z,2.70
2023-03-04T07:26:19.915Z,3.20
2023-03-04T07:28:47.874Z,3.60
2023-03-04T07:31:23.190Z,4.00
2023-03-04T07:33:53.065Z,4.20
2023-03-04T07:36:20.977Z,4.50
2023-03-04T07:38:50.254Z,4.60
2023-03-04T07:41:19.023Z,5.20
2023-03-04T07:43:46.954Z,6.00
2023-03-04T07:46:15.042Z,6.60
2023-03-04T07:48:42.980Z,7.20
2023-03-04T07:51:14.147Z,7.50
2023-03-04T07:53:43.547Z,7.50
2023-03-04T07:56:13.851Z,7.90
2023-03-04T07:58:41.953Z,8.20
2023-03-04T08:01:11.601Z,8.80
2023-03-04T08:03:40.083Z,9.30
2023-03-04T08:06:08.841Z,9.80
2023-03-04T08:08:38.494Z,10.60
2023-03-04T08:11:07.595Z,11.30
2023-03-04T08:13:36.163Z,10.50
2023-03-04T08:16:06.031Z,9.90
2023-03-04T08:18:33.978Z,9.60
2023-03-04T08:21:01.905Z,9.10
2023-03-04T08:23:29.811Z,9.10
2023-03-04T08:25:59.077Z,9.90
2023-03-04T08:28:26.980Z,10.40
2023-03-04T08:30:56.662Z,11.00
2023-03-04T08:33:24.544Z,11.20
2023-03-04T08:35:52.468Z,11.40
2023-03-04T08:38:20.361Z,11.20
2023-03-04T08:40:53.799Z,11.00
2023-03-04T08:43:23.063Z,11.00
2023-03-04T08:45:51.158Z,11.20
2023-03-04T08:48:19.461Z,11.20
2023-03-04T08:50:47.574Z,11.30
2023-03-04T08:53:15.937Z,11.80
2023-03-04T08:55:44.361Z,12.40
2023-03-04T08:58:12.729Z,12.70
2023-03-04T09:00:44.162Z,12.40
2023-03-04T09:03:13.953Z,13.00
2023-03-04T09:05:42.108Z,13.20
2023-03-04T09:08:10.693Z,12.70
2023-03-04T09:10:38.686Z,12.70
2023-03-04T09:13:08.206Z,12.90
2023-03-04T09:15:36.507Z,13.10
2023-03-04T09:18:06.544Z,12.90
2023-03-04T09:20:34.467Z,13.20
2023-03-04T09:23:02.466Z,14.20
2023-03-04T09:25:30.342Z,14.70
2023-03-04T09:27:58.233Z,14.50
2023-03-04T09:30:28.022Z,14.40
2023-03-04T09:32:56.735Z,15.10
2023-03-04T09:35:26.305Z,15.40
2023-03-04T09:37:54.245Z,15.10
2023-03-04T09:40:25.354Z,14.90
2023-03-04T09:42:58.029Z,15.20
2023-03-04T09:45:32.082Z,15.20
2023-03-04T09:48:00.813Z,14.80
2023-03-04T09:50:34.564Z,14.60
2023-03-04T09:53:11.759Z,14.70
2023-03-04T09:55:41.511Z,15.30
2023-03-04T09:58:21.676Z,15.50
2023-03-04T10:00:57.090Z,15.60
2023-03-04T10:03:28.418Z,16.60
2023-03-04T10:06:01.690Z,16.60
2023-03-04T10:08:41.053Z,16.50
2023-03-04T10:11:14.972Z,15.90
2023-03-04T10:13:55.189Z,16.10
2023-03-04T10:16:27.000Z,16.00
2023-03-04T10:18:59.709Z,16.50
2023-03-04T10:21:34.266Z,16.20
2023-03-04T10:24:06.529Z,16.40
2023-03-04T10:26:34.954Z,17.00
2023-03-04T10:29:06.930Z,17.10
2023-03-04T10:31:38.988Z,16.40
2023-03-04T10:34:07.757Z,16.20
2023-03-04T10:36:48.747Z,16.20
2023-03-04T10:39:22.877Z,16.00
2023-03-04T10:41:57.974Z,16.20
2023-03-04T10:44:26.737Z,16.20
2023-03-04T10:46:56.865Z,17.00
2023-03-04T10:49:26.501Z,16.70
2023-03-04T10:52:02.848Z,16.30
2023-03-04T10:54:34.697Z,16.30
2023-03-04T10:57:05.320Z,16.10
2023-03-04T10:59:43.667Z,16.70
2023-03-04T11:02:21.843Z,17.00
2023-03-04T11:04:55.607Z,16.90
2023-03-04T11:07:26.654Z,16.90
2023-03-04T11:09:57.316Z,16.20
2023-03-04T11:12:34.933Z,16.20
2023-03-04T11:15:03.939Z,16.00
2023-03-04T11:17:44.094Z,15.10
2023-03-04T11:20:19.261Z,14.70
2023-03-04T11:22:48.641Z,14.80
2023-03-04T11:25:25.056Z,14.60
2023-03-04T11:27:56.856Z,15.00
2023-03-04T11:30:35.271Z,15.20
2023-03-04T11:33:14.430Z,15.80
2023-03-04T11:35:49.665Z,15.90
2023-03-04T11:38:21.344Z,15.50
2023-03-04T11:40:54.104Z,15.10
2023-03-04T11:43:28.389Z,15.00
2023-03-04T11:46:21.524Z,14.40
2023-03-04T11:48:58.008Z,14.30
2023-03-04T11:51:35.954Z,13.80
2023-03-04T11:54:18.527Z,13.90
2023-03-04T11:56:50.383Z,13.70
2023-03-04T11:59:46.742Z,14.10
2023-03-04T12:02:20.423Z,13.80
2023-03-04T12:05:02.675Z,13.60
2023-03-04T12:07:47.605Z,13.10
2023-03-04T12:10:24.480Z,13.80
2023-03-04T12:13:18.267Z,13.70
2023-03-04T12:15:54.518Z,13.00
2023-03-04T12:18:44.309Z,12.20
2023-03-04T12:21:23.928Z,11.50
2023-03-04T12:24:26.744Z,11.30
2023-03-04T12:27:01.531Z,10.90
2023-03-04T12:29:40.240Z,10.80
2023-03-04T12:32:18.697Z,10.60
2023-03-04T12:34:58.480Z,10.50
2023-03-04T12:37:42.674Z,10.60
2023-03-04T12:40:35.869Z,10.40
2023-03-04T12:43:14.347Z,10.60
2023-03-04T12:45:48.447Z,10.60
2023-03-04T12:48:27.743Z,10.50
2023-03-04T12:51:08.201Z,10.50
2023-03-04T12:53:41.217Z,10.30
2023-03-04T12:56:23.038Z,10.10
2023-03-04T12:58:53.138Z,10.20
2023-03-04T13:01:27.303Z,10.20
2023-03-04T13:04:02.840Z,10.20
2023-03-04T13:06:42.623Z,10.30
2023-03-04T13:09:20.453Z,10.00
2023-03-04T13:12:03.736Z,9.90
2023-03-04T13:14:36.175Z,10.00
2023-03-04T13:17:43.306Z,9.80
2023-03-04T13:20:24.122Z,10.00
2023-03-04T13:22:56.926Z,10.20
2023-03-04T13:25:34.892Z,10.30
2023-03-04T13:28:22.293Z,10.40
2023-03-04T13:31:24.360Z,10.60
2023-03-04T13:34:00.540Z,10.60
2023-03-04T13:36:59.233Z,10.50
2023-03-04T13:39:37.061Z,10.40
2023-03-04T13:42:36.069Z,10.10
2023-03-04T13:45:04.692Z,10.00
2023-03-04T13:47:48.291Z,10.20
2023-03-04T13:50:23.830Z,10.30
2023-03-04T13:52:51.806Z,9.90
2023-03-04T13:55:38.616Z,9.80
2023-03-04T13:58:26.292Z,9.70
2023-03-04T14:00:56.540Z,9.60
2023-03-04T14:03:28.733Z,9.50
2023-03-04T14:06:19.844Z,9.50
2023-03-04T14:08:48.870Z,9.60
2023-03-04T14:11:22.588Z,9.60
2023-03-04T14:13:50.606Z,9.50
2023-03-04T14:16:22.482Z,9.30
2023-03-04T14:19:03.522Z,9.30
2023-03-04T14:21:31.954Z,9.20
2023-03-04T14:24:06.147Z,9.00
2023-03-04T14:26:34.774Z,8.90
2023-03-04T14:29:03.062Z,8.90
2023-03-04T14:31:35.491Z,8.60
2023-03-04T14:34:05.438Z,8.60
2023-03-04T14:36:35.425Z,8.50
2023-03-04T14:39:06.809Z,8.70
2023-03-04T14:41:38.045Z,8.70
2023-03-04T14:44:12.512Z,8.50
2023-03-04T14:46:47.508Z,8.40
2023-03-04T14:49:20.785Z,8.00
2023-03-04T14:51:51.091Z,8.00
2023-03-04T14:54:37.279Z,8.10
2023-03-04T14:57:24.056Z,8.10
2023-03-04T14:59:52.972Z,7.90
2023-03-04T15:02:36.553Z,7.60
2023-03-04T15:05:16.938Z,7.40
2023-03-04T15:07:50.788Z,7.20
2023-03-04T15:10:23.901Z,7.10
2023-03-04T15:12:53.554Z,7.00
2023-03-04T15:15:43.354Z,6.90
2023-03-04T15:18:22.032Z,6.70
2023-03-04T15:21:03.010Z,6.50
2023-03-04T15:23:32.339Z,6.40
2023-03-04T15:26:02.278Z,6.10
2023-03-04T15:28:33.655Z,6.10
2023-03-04T15:31:01.642Z,5.90
2023-03-04T15:33:29.642Z,5.60
2023-03-04T15:36:00.980Z,5.60
2023-03-04T15:38:30.383Z,5.50
2023-03-04T15:40:59.790Z,5.40
2023-03-04T15:43:27.818Z,5.30
2023-03-04T15:45:55.707Z,5.20
2023-03-04T15:48:23.628Z,5.10
2023-03-04T15:50:56.275Z,5.20
2023-03-04T15:53:32.623Z,5.10
2023-03-04T15:56:01.688Z,5.00
2023-03-04T15:58:32.094Z,4.70
2023-03-04T16:01:01.071Z,4.70
2023-03-04T16:03:28.951Z,4.60
2023-03-04T16:05:58.067Z,4.60
2023-03-04T16:08:27.368Z,4.40
2023-03-04T16:10:55.247Z,4.20
2023-03-04T16:13:24.917Z,4.10
2023-03-04T16:15:53.205Z,4.00
2023-03-04T16:18:21.494Z,3.70
2023-03-04T16:20:50.736Z,3.40
2023-03-04T16:23:21.537Z,3.50
2023-03-04T16:25:53.122Z,3.50
2023-03-04T16:28:21.019Z,3.60
2023-03-04T16:30:49.086Z,3.40
2023-03-04T16:33:17.150Z,3.40
2023-03-04T16:35:46.507Z,3.20
2023-03-04T16:38:25.729Z,3.10
2023-03-04T16:40:56.530Z,3.00
2023-03-04T16:43:25.384Z,2.90
2023-03-04T16:45:53.454Z,2.80
2023-03-04T16:48:21.437Z,2.70
2023-03-04T16:50:49.472Z,2.50
2023-03-04T16:53:25.854Z,2.50
2023-03-04T16:55:55.764Z,2.40
2023-03-04T16:58:23.622Z,2.30
2023-03-04T17:00:51.567Z,2.40
2023-03-04T17:03:19.451Z,2.30
2023-03-04T17:05:47.721Z,2.20
2023-03-04T17:08:15.695Z,2.20
2023-03-04T17:10:43.620Z,2.00
2023-03-04T17:13:12.852Z,1.90
2023-03-04T17:15:42.801Z,1.80
2023-03-04T17:18:10.844Z,1.70
2023-03-04T17:20:38.871Z,1.60
2023-03-04T17:23:06.864Z,1.60
2023-03-04T17:25:34.953Z,1.50
2023-03-04T17:28:02.859Z,1.40
2023-03-04T17:30:32.746Z,1.40
2023-03-04T17:33:00.641Z,1.40
2023-03-04T17:35:28.512Z,1.40
2023-03-04T17:37:56.410Z,1.40
2023-03-04T17:40:24.360Z,1.50
2023-03-04T17:42:52.248Z,1.60
2023-03-04T17:45:20.227Z,1.60
2023-03-04T17:47:49.476Z,1.60
2023-03-04T17:50:17.818Z,1.60
2023-03-04T17:52:45.672Z,1.60
2023-03-04T17:55:13.579Z,1.50
2023-03-04T17:57:41.444Z,1.40
2023-03-04T18:00:10.746Z,1.30
2023-03-04T18:02:38.591Z,1.20
2023-03-04T18:05:08.763Z,1.20
2023-03-04T18:07:36.617Z,1.10
2023-03-04T18:10:05.214Z,1.10
2023-03-04T18:12:33.300Z,1.10
2023-03-04T18:15:01.182Z,1.20
2023-03-04T18:17:29.081Z,1.10
2023-03-04T18:19:57.514Z,1.00
2023-03-04T18:22:26.774Z,1.00
2023-03-04T18:24:54.631Z,1.00
2023-03-04T18:27:22.540Z,1.00
2023-03-04T18:29:50.416Z,1.00
2023-03-04T18:32:18.450Z,1.00
2023-03-04T18:34:46.334Z,1.00
2023-03-04T18:37:14.336Z,1.00
2023-03-04T18:39:43.552Z,0.90
2023-03-04T18:42:11.478Z,0.90
2023-03-04T18:44:39.499Z,0.90
2023-03-04T18:47:08.028Z,1.00
2023-03-04T18:49:35.963Z,1.00
2023-03-04T18:52:03.839Z,0.90
2023-03-04T18:54:31.716Z,1.00
2023-03-04T18:57:04.746Z,1.00
2023-03-04T18:59:37.078Z,0.90
2023-03-04T19:02:11.300Z,0.90
2023-03-04T19:04:39.288Z,0.80
2023-03-04T19:07:07.161Z,0.80
2023-03-04T19:09:35.089Z,0.80
2023-03-04T19:12:06.467Z,0.80
2023-03-04T19:14:34.488Z,0.80
2023-03-04T19:17:02.353Z,0.80
2023-03-04T19:19:30.259Z,0.80
2023-03-04T19:22:10.537Z,0.90
2023-03-04T19:24:39.355Z,0.90
2023-03-04T19:27:08.560Z,0.90
2023-03-04T19:29:36.552Z,0.90
2023-03-04T19:32:04.575Z,0.80
2023-03-04T19:34:32.512Z,0.90
2023-03-04T19:37:00.391Z,1.00
2023-03-04T19:39:28.298Z,0.90
2023-03-04T19:41:56.147Z,0.90
2023-03-04T19:44:25.392Z,0.90
2023-03-04T19:46:53.330Z,0.90
2023-03-04T19:49:21.201Z,0.90
2023-03-04T19:51:49.037Z,0.90
2023-03-04T19:54:17.005Z,0.80
2023-03-04T19:56:44.896Z,0.90
2023-03-04T19:59:12.742Z,0.90
2023-03-04T20:01:44.672Z,0.90
2023-03-04T20:04:17.393Z,0.80
2023-03-04T20:06:46.743Z,0.80
2023-03-04T20:09:17.191Z,0.80
2023-03-04T20:11:57.224Z,0.80
2023-03-04T20:14:25.960Z,0.70
2023-03-04T20:16:55.445Z,0.70
2023-03-04T20:19:23.318Z,0.70
2023-03-04T20:21:51.209Z,0.70
2023-03-04T20:24:19.931Z,0.80
2023-03-04T20:26:47.811Z,0.80
2023-03-04T20:29:15.924Z,0.70
2023-03-04T20:31:44.640Z,0.60
2023-03-04T20:34:14.751Z,0.60
2023-03-04T20:36:42.677Z,0.70
2023-03-04T20:39:26.959Z,0.70
2023-03-04T20:42:08.812Z,0.80
2023-03-04T20:44:39.601Z,0.80
2023-03-04T20:47:07.578Z,0.70
2023-03-04T20:49:36.818Z,0.70
2023-03-04T20:52:06.386Z,0.60
2023-03-04T20:54:35.018Z,0.70
2023-03-04T20:57:05.411Z,0.60
2023-03-04T20:59:33.680Z,0.60
2023-03-04T21:02:01.720Z,0.70
2023-03-04T21:04:31.884Z,0.70
2023-03-04T21:07:02.287Z,0.60
2023-03-04T21:09:30.722Z,0.70
2023-03-04T21:12:00.712Z,0.70
2023-03-04T21:14:31.407Z,0.70
2023-03-04T21:17:01.933Z,0.70
2023-03-04T21:19:31.791Z,0.70
2023-03-04T21:22:01.888Z,0.70
2023-03-04T21:24:32.155Z,0.60
2023-03-04T21:27:01.467Z,0.60
2023-03-04T21:29:29.673Z,0.60
2023-03-04T21:32:12.966Z,0.60
2023-03-04T21:34:43.553Z,0.60
2023-03-04T21:37:12.821Z,0.60
2023-03-04T21:39:40.923Z,0.60
2023-03-04T21:42:08.862Z,0.50
2023-03-04T21:44:48.561Z,0.50
2023-03-04T21:47:17.853Z,0.60
2023-03-04T21:49:45.770Z,0.50
2023-03-04T21:52:15.015Z,0.50
2023-03-04T21:54:42.946Z,0.60
2023-03-04T21:57:10.884Z,0.60
2023-03-04T21:59:39.589Z,0.50
2023-03-04T22:02:08.265Z,0.40
2023-03-04T22:04:36.220Z,0.40
2023-03-04T22:07:04.135Z,0.30
2023-03-04T22:09:33.364Z,0.20
2023-03-04T22:12:01.261Z,0.20
2023-03-04T22:14:29.565Z,0.20
2023-03-04T22:16:57.546Z,0.20
2023-03-04T22:19:26.712Z,0.20
2023-03-04T22:21:55.241Z,0.20
2023-03-04T22:24:23.426Z,0.30
2023-03-04T22:26:52.790Z,0.30
2023-03-04T22:29:20.679Z,0.20
2023-03-04T22:31:48.570Z,0.20
2023-03-04T22:34:17.142Z,0.30
2023-03-04T22:36:47.527Z,0.30
2023-03-04T22:39:19.171Z,0.20
2023-03-04T22:41:47.526Z,0.20
2023-03-04T22:44:16.878Z,0.30
2023-03-04T22:46:44.885Z,0.30
2023-03-04T22:49:15.078Z,0.40
2023-03-04T22:51:44.662Z,0.40
2023-03-04T22:54:13.680Z,0.40
2023-03-04T22:56:41.587Z,0.30
2023-03-04T22:59:11.566Z,0.40
2023-03-04T23:01:40.805Z,0.40
2023-03-04T23:04:08.676Z,0.40
2023-03-04T23:06:37.627Z,0.40
2023-03-04T23:09:06.051Z,0.40
2023-03-04T23:11:36.919Z,0.50
2023-03-04T23:14:07.155Z,0.50
2023-03-04T23:16:39.059Z,0.60
2023-03-04T23:19:09.414Z,0.70
2023-03-04T23:21:38.693Z,0.70
2023-03-04T23:24:08.409Z,0.70
2023-03-04T23:26:38.810Z,0.70
2023-03-04T23:29:08.688Z,0.70
2023-03-04T23:31:37.762Z,0.70
2023-03-04T23:34:07.219Z,0.70
2023-03-04T23:36:37.340Z,0.80
2023-03-04T23:39:07.242Z,0.80
2023-03-04T23:41:36.020Z,0.80
2023-03-04T23:44:04.744Z,0.80
2023-03-04T23:46:33.073Z,0.80
2023-03-04T23:49:01.291Z,0.80
2023-03-04T23:51:30.459Z,0.80
2023-03-04T23:54:00.538Z,0.60
2023-03-04T23:56:30.006Z,0.70
2023-03-04T23:58:59.030Z,0.70
